Time;durP1;ratioP1;P1;durP2;ratioP2;P2;SDS_P1;SDS_P2;PMS_P1;PMS_P2;Temp;Humidity;BMP_temperature;BMP_pressure;BME280_temperature;BME280_humidity;BME280_pressure;Samples;Min_cycle;Max_cycle;Signal;HPM_P1;HPM_P2
2021/07/25 00:00:42;;;;;;;16.08;11.25;;;;;;;17.17;100.00;97548.34;5130978;28;20019;-77
2021/07/25 00:03:08;;;;;;;17.67;11.75;;;;;;;17.12;100.00;97552.44;5132548;27;20027;-76
2021/07/25 00:05:35;;;;;;;18.55;11.70;;;;;;;17.11;100.00;97565.09;5135447;27;20080;-76
2021/07/25 00:08:00;;;;;;;19.35;12.10;;;;;;;17.11;100.00;97553.41;5118154;27;20029;-75
2021/07/25 00:10:26;;;;;;;19.20;12.55;;;;;;;17.08;100.00;97564.50;5134957;27;20390;-76
2021/07/25 00:12:52;;;;;;;18.27;11.32;;;;;;;17.09;100.00;97567.09;5135147;27;20045;-76
2021/07/25 00:15:17;;;;;;;17.95;11.73;;;;;;;17.09;100.00;97567.09;5117874;27;20047;-76
2021/07/25 00:17:43;;;;;;;20.02;12.25;;;;;;;17.10;100.00;97557.13;5136115;27;20444;-76
2021/07/25 00:20:09;;;;;;;17.45;11.43;;;;;;;17.02;100.00;97533.47;5136547;27;20050;-76
2021/07/25 00:22:35;;;;;;;15.63;11.55;;;;;;;17.07;100.00;97546.59;5134864;27;20068;-75
2021/07/25 00:25:18;;;;;;;19.10;12.05;;;;;;;16.95;100.00;97532.28;5136336;27;20027;-76
2021/07/25 00:27:43;;;;;;;;;;;;;;;17.12;100.00;97556.00;5136340;27;20019;-76
2021/07/25 00:30:13;;;;;;;17.42;10.25;;;;;;;17.02;100.00;97556.94;5134935;27;20389;-75
2021/07/25 00:32:39;;;;;;;19.33;11.57;;;;;;;16.89;100.00;97553.63;5118055;27;20110;-76
2021/07/25 00:35:05;;;;;;;17.42;11.57;;;;;;;16.77;100.00;97556.38;5134919;27;20059;-76
2021/07/25 00:37:31;;;;;;;20.83;11.32;;;;;;;16.64;100.00;97552.19;5135958;27;20023;-76
2021/07/25 00:39:56;;;;;;;16.63;11.10;;;;;;;16.66;100.00;97551.06;5135858;27;20106;-76
2021/07/25 00:42:23;;;;;;;19.90;11.95;;;;;;;16.65;100.00;97552.03;5134816;27;20019;-76
2021/07/25 00:44:48;;;;;;;17.70;12.02;;;;;;;16.58;100.00;97540.03;5135802;27;20019;-76
2021/07/25 00:47:14;;;;;;;17.95;11.75;;;;;;;16.54;100.00;97544.00;5134777;27;20015;-76
2021/07/25 00:49:39;;;;;;;19.70;11.82;;;;;;;16.54;100.00;97549.41;5134343;27;20406;-76
2021/07/25 00:52:06;;;;;;;18.65;11.50;;;;;;;16.51;100.00;97532.59;5134644;27;20394;-76
2021/07/25 00:54:31;;;;;;;18.08;11.48;;;;;;;16.42;100.00;97518.03;5134524;27;20019;-76
2021/07/25 00:56:57;;;;;;;27.17;12.57;;;;;;;16.50;100.00;97533.56;5134525;27;20030;-76
2021/07/25 00:59:22;;;;;;;15.35;11.77;;;;;;;16.47;100.00;97545.50;5134488;27;20103;-75
2021/07/25 01:01:49;;;;;;;15.95;11.77;;;;;;;16.56;100.00;97560.94;5134026;27;20027;-77
2021/07/25 01:04:41;;;;;;;18.15;11.60;;;;;;;16.48;100.00;97543.66;5134351;27;20490;-76
2021/07/25 01:07:28;;;;;;;16.55;12.23;;;;;;;16.59;100.00;97551.72;5135623;27;20379;-76
2021/07/25 01:10:08;;;;;;;16.15;11.65;;;;;;;16.53;100.00;97539.56;5135507;27;20034;-76
2021/07/25 01:12:41;;;;;;;19.33;12.02;;;;;;;16.45;100.00;97533.97;5134273;27;20110;-76
2021/07/25 01:15:07;;;;;;;18.27;11.98;;;;;;;16.45;100.00;97538.50;5133877;27;20054;-76
2021/07/25 01:17:34;;;;;;;22.15;12.93;;;;;;;16.43;100.00;97533.22;5134101;27;20035;-76
2021/07/25 01:20:04;;;;;;;17.40;12.25;;;;;;;16.53;100.00;97547.66;5134074;27;20024;-76
2021/07/25 01:22:33;;;;;;;18.83;12.07;;;;;;;16.47;100.00;97541.94;5135354;27;20102;-76
2021/07/25 01:24:59;;;;;;;17.35;12.68;;;;;;;16.35;100.00;97530.34;5133682;27;20046;-76
2021/07/25 01:27:59;;;;;;;18.42;11.57;;;;;;;16.49;100.00;97550.78;5134393;27;20046;-76
2021/07/25 01:30:38;;;;;;;17.58;11.40;;;;;;;16.39;100.00;97548.00;5123552;27;20163;-76
2021/07/25 01:33:10;;;;;;;15.27;10.52;;;;;;;16.30;100.00;97539.81;5133802;27;20026;-76
2021/07/25 01:35:36;;;;;;;19.02;12.18;;;;;;;16.25;100.00;97545.59;5133724;27;20027;-76
2021/07/25 01:38:02;;;;;;;15.23;10.77;;;;;;;16.15;100.00;97542.00;5133555;27;20015;-76
2021/07/25 01:40:27;;;;;;;16.70;11.45;;;;;;;16.22;100.00;97543.16;5134662;27;20019;-76
2021/07/25 01:42:55;;;;;;;19.50;11.57;;;;;;;16.10;100.00;97531.56;5133373;27;20120;-75
2021/07/25 01:45:23;;;;;;;20.85;11.43;;;;;;;16.03;100.00;97529.50;5133779;27;20410;-76
2021/07/25 01:47:49;;;;;;;19.70;11.55;;;;;;;16.01;100.00;97524.25;5133477;27;20160;-75
2021/07/25 01:50:15;;;;;;;18.20;11.65;;;;;;;16.07;100.00;97549.84;5133434;27;20098;-76
2021/07/25 01:52:41;;;;;;;17.10;11.13;;;;;;;16.04;100.00;97539.31;5133596;27;20022;-76
2021/07/25 01:55:07;;;;;;;19.95;11.55;;;;;;;15.99;100.00;97528.06;5133249;27;20027;-76
2021/07/25 01:57:33;;;;;;;20.75;11.10;;;;;;;16.10;100.00;97546.91;5134457;27;20042;-75
2021/07/25 01:59:58;;;;;;;17.45;11.38;;;;;;;16.11;100.00;97551.31;5133142;27;20549;-76
2021/07/25 02:02:24;;;;;;;15.32;11.07;;;;;;;16.08;100.00;97546.19;5134374;27;20447;-76
2021/07/25 02:04:50;;;;;;;15.90;11.27;;;;;;;16.14;100.00;97545.66;5132919;27;20034;-76
2021/07/25 02:07:15;;;;;;;19.13;10.77;;;;;;;16.14;100.00;97546.53;5134348;27;20094;-76
2021/07/25 02:09:41;;;;;;;18.58;11.05;;;;;;;16.15;100.00;97552.78;5134309;27;20072;-76
2021/07/25 02:12:08;;;;;;;16.00;10.40;;;;;;;16.06;100.00;97548.13;5134058;27;20517;-76
2021/07/25 02:14:36;;;;;;;15.88;10.52;;;;;;;16.08;100.00;97556.97;5132924;27;20066;-75
2021/07/25 02:17:02;;;;;;;21.95;11.07;;;;;;;15.88;100.00;97528.09;5132690;27;20062;-77
2021/07/25 02:19:28;;;;;;;17.67;10.82;;;;;;;15.88;100.00;97536.19;5132884;27;20015;-76
2021/07/25 02:21:54;;;;;;;17.73;10.32;;;;;;;15.87;100.00;97542.59;5132511;27;20105;-76
2021/07/25 02:24:20;;;;;;;26.80;10.27;;;;;;;15.73;100.00;97528.41;5132821;27;20102;-75
2021/07/25 02:26:46;;;;;;;19.20;10.40;;;;;;;15.91;100.00;97546.72;5132112;27;20023;-75
2021/07/25 02:29:11;;;;;;;20.83;11.98;;;;;;;15.84;100.00;97543.69;5132688;27;20019;-75
2021/07/25 02:31:37;;;;;;;21.27;12.68;;;;;;;15.84;100.00;97548.22;5134011;27;20031;-75
2021/07/25 02:34:03;;;;;;;18.42;12.88;;;;;;;15.81;100.00;97552.00;5132186;27;20035;-76
2021/07/25 02:36:28;;;;;;;20.75;13.25;;;;;;;15.84;100.00;97559.88;5132640;27;20101;-75
2021/07/25 02:38:54;;;;;;;17.83;12.68;;;;;;;15.61;100.00;97532.09;5131993;27;20502;-75
2021/07/25 02:41:19;;;;;;;17.52;13.10;;;;;;;15.74;100.00;97550.84;5132303;27;20551;-76
2021/07/25 02:43:45;;;;;;;21.45;11.63;;;;;;;15.71;100.00;97557.34;5115022;27;20019;-76
2021/07/25 02:46:10;;;;;;;20.05;11.48;;;;;;;15.73;100.00;97562.59;5132246;27;20046;-76
2021/07/25 02:48:36;;;;;;;45.28;12.60;;;;;;;15.75;100.00;97565.19;5133650;27;20019;-76
2021/07/25 02:51:02;;;;;;;19.73;12.05;;;;;;;15.70;100.00;97568.25;5114816;27;20410;-76
2021/07/25 02:53:27;;;;;;;25.05;13.27;;;;;;;15.59;100.00;97554.78;5114967;27;20105;-76
2021/07/25 02:55:53;;;;;;;20.42;12.82;;;;;;;15.49;100.00;97549.28;5114877;27;20387;-76
2021/07/25 02:58:19;;;;;;;20.13;12.80;;;;;;;15.46;100.00;97560.28;5114845;27;20050;-76
2021/07/25 03:00:45;;;;;;;22.70;14.32;;;;;;;15.48;100.00;97574.53;5132293;27;20080;-76
2021/07/25 03:03:10;;;;;;;22.70;15.07;;;;;;;15.34;100.00;97577.47;5131915;27;20027;-76
2021/07/25 03:05:36;;;;;;;21.80;14.13;;;;;;;15.26;100.00;97577.19;5132240;27;20031;-76
2021/07/25 03:08:02;;;;;;;23.42;14.13;;;;;;;15.37;100.00;97589.81;5132106;27;20470;-76
2021/07/25 03:10:27;;;;;;;18.17;13.40;;;;;;;15.35;100.00;97595.31;5114982;27;20031;-76
2021/07/25 03:12:53;;;;;;;27.10;12.85;;;;;;;15.29;100.00;97586.91;5131698;27;20033;-76
2021/07/25 03:15:18;;;;;;;14.57;10.93;;;;;;;15.23;100.00;97582.84;5133131;27;20133;-76
2021/07/25 03:17:44;;;;;;;13.93;10.63;;;;;;;15.22;100.00;97588.38;5131813;27;20475;-76
2021/07/25 03:20:10;;;;;;;18.45;11.13;;;;;;;15.23;100.00;97590.09;5131460;27;20046;-77
2021/07/25 03:22:36;;;;;;;14.27;9.98;;;;;;;15.08;100.00;97562.50;5132746;27;20066;-76
2021/07/25 03:25:02;;;;;;;18.25;10.18;;;;;;;15.24;100.00;97578.31;5131466;27;20027;-76
2021/07/25 03:27:28;;;;;;;14.70;10.38;;;;;;;15.32;100.00;97587.47;5132968;27;20022;-76
2021/07/25 03:29:54;;;;;;;15.23;10.85;;;;;;;15.33;100.00;97577.56;5131639;27;20042;-76
2021/07/25 03:32:19;;;;;;;17.98;10.10;;;;;;;15.35;100.00;97581.03;5131259;27;20482;-76
2021/07/25 03:34:46;;;;;;;14.48;10.15;;;;;;;15.30;100.00;97575.13;5114312;28;20494;-77
2021/07/25 03:37:12;;;;;;;20.85;10.43;;;;;;;15.34;100.00;97574.75;5131826;27;20114;-76
2021/07/25 03:39:37;;;;;;;18.05;11.63;;;;;;;15.22;100.00;97562.28;5131469;27;20103;-76
2021/07/25 03:42:03;;;;;;;17.98;11.82;;;;;;;15.30;100.00;97584.06;5131330;27;20035;-76
2021/07/25 03:44:29;;;;;;;23.42;11.25;;;;;;;15.44;100.00;97591.88;5131309;27;20034;-76
2021/07/25 03:46:55;;;;;;;18.35;11.57;;;;;;;15.50;100.00;97594.16;5132765;27;20483;-76
2021/07/25 03:49:21;;;;;;;20.33;12.35;;;;;;;15.54;100.00;97587.50;5114385;28;20034;-76
2021/07/25 03:51:46;;;;;;;21.15;12.75;;;;;;;15.62;100.00;97587.75;5131221;28;20027;-77
2021/07/25 03:54:13;;;;;;;19.13;12.05;;;;;;;15.59;100.00;97577.22;5132613;27;20031;-76
2021/07/25 03:56:40;;;;;;;19.48;11.80;;;;;;;15.72;100.00;97587.84;5114049;28;20089;-76
2021/07/25 03:59:05;;;;;;;21.95;13.23;;;;;;;15.80;100.00;97601.56;5131356;28;20039;-77
2021/07/25 04:01:31;;;;;;;17.10;11.70;;;;;;;15.91;100.00;97608.75;5131388;28;20038;-76
2021/07/25 04:03:57;;;;;;;16.30;11.80;;;;;;;15.98;100.00;97605.44;5131460;28;20414;-76
2021/07/25 04:06:22;;;;;;;17.77;11.07;;;;;;;16.09;100.00;97607.25;5131053;27;20115;-77
2021/07/25 04:08:48;;;;;;;17.70;11.45;;;;;;;16.14;100.00;97607.72;5132734;27;20027;-76
2021/07/25 04:11:20;;;;;;;18.83;11.13;;;;;;;16.23;100.00;97613.22;5132603;27;20039;-76
2021/07/25 04:13:46;;;;;;;21.13;11.15;;;;;;;16.24;100.00;97592.50;5132419;27;20146;-76
2021/07/25 04:16:11;;;;;;;20.98;11.20;;;;;;;16.37;100.00;97612.06;5132266;27;20031;-76
2021/07/25 04:18:37;;;;;;;17.70;9.98;;;;;;;16.47;100.00;97604.91;5131115;28;20027;-76
2021/07/25 04:21:02;;;;;;;20.35;10.68;;;;;;;16.51;100.00;97592.00;5130895;27;20087;-76
2021/07/25 04:23:28;;;;;;;18.95;10.82;;;;;;;16.71;100.00;97607.38;5132679;27;20088;-77
2021/07/25 04:25:54;;;;;;;16.58;10.68;;;;;;;16.68;100.00;97604.94;5131448;27;20031;-76
2021/07/25 04:28:20;;;;;;;15.27;11.27;;;;;;;16.70;100.00;97603.81;5130866;27;20028;-76
2021/07/25 04:30:46;;;;;;;17.98;10.77;;;;;;;16.75;100.00;97598.03;5131853;27;20034;-76
2021/07/25 04:33:12;;;;;;;17.83;11.02;;;;;;;16.88;100.00;97603.25;5131761;27;20110;-77
2021/07/25 04:35:39;;;;;;;23.17;11.50;;;;;;;17.01;100.00;97609.31;5113282;28;20023;-76
2021/07/25 04:38:05;;;;;;;26.30;12.95;;;;;;;17.53;100.00;97609.13;5130666;27;20487;-76
2021/07/25 04:40:31;;;;;;;20.50;12.73;;;;;;;19.02;90.74;97623.31;5130707;28;20022;-76
2021/07/25 04:42:59;;;;;;;22.58;14.63;;;;;;;20.57;78.39;97614.34;5131976;27;20083;-76
2021/07/25 04:45:59;;;;;;;18.15;13.13;;;;;;;20.86;75.63;97636.69;5130528;28;20027;-79
2021/07/25 04:48:31;;;;;;;19.40;14.02;;;;;;;19.95;79.64;97624.16;5105103;27;20483;-79
2021/07/25 04:51:03;;;;;;;27.45;15.68;;;;;;;19.17;84.34;97610.13;5135779;27;20023;-83
2021/07/25 04:53:32;;;;;;;26.05;14.63;;;;;;;18.65;87.10;97596.09;5116968;27;20537;-83
2021/07/25 04:55:59;;;;;;;24.95;13.23;;;;;;;18.62;89.71;97630.75;5117162;27;20027;-79
2021/07/25 04:58:29;;;;;;;28.13;13.35;;;;;;;18.66;89.84;97632.19;5116862;27;20059;-82
2021/07/25 05:00:56;;;;;;;21.25;15.30;;;;;;;18.72;88.18;97627.06;5134575;27;20031;-81
2021/07/25 05:03:22;;;;;;;23.05;13.32;;;;;;;18.70;88.44;97644.47;5134307;27;20102;-76
2021/07/25 05:05:48;;;;;;;25.17;13.75;;;;;;;18.71;88.32;97622.63;5134259;27;20119;-78
2021/07/25 05:08:14;;;;;;;19.27;13.10;;;;;;;19.45;84.83;97637.22;5116857;27;20504;-77
2021/07/25 05:10:40;;;;;;;20.63;14.35;;;;;;;20.11;79.94;97641.66;5134219;27;20056;-78
2021/07/25 05:13:11;;;;;;;20.80;13.38;;;;;;;20.14;78.73;97638.63;5134125;27;20027;-78
2021/07/25 05:15:40;;;;;;;20.77;11.73;;;;;;;20.06;79.41;97652.13;5084900;28;20036;-78
2021/07/25 05:18:07;;;;;;;18.42;13.70;;;;;;;19.99;79.43;97652.69;5093284;28;20043;-79
2021/07/25 05:20:58;;;;;;;28.50;12.88;;;;;;;20.17;79.75;97638.31;5092954;28;20392;-77
2021/07/25 05:23:27;;;;;;;26.73;12.18;;;;;;;21.86;72.08;97655.28;5094184;28;20032;-78
2021/07/25 05:25:54;;;;;;;31.27;12.10;;;;;;;23.38;64.30;97664.03;5092975;28;20085;-78
2021/07/25 05:28:20;;;;;;;19.20;12.02;;;;;;;25.15;58.14;97671.56;5092891;28;20483;-78
2021/07/25 05:30:53;;;;;;;30.45;14.10;;;;;;;26.47;52.70;97668.16;5075846;28;20032;-79
2021/07/25 05:33:23;;;;;;;25.33;13.02;;;;;;;28.18;48.55;97676.25;5075989;28;20100;-79
2021/07/25 05:35:49;;;;;;;25.08;12.93;;;;;;;29.38;44.75;97675.47;5093147;28;20119;-78
2021/07/25 05:38:18;;;;;;;13.70;10.38;;;;;;;29.81;42.21;97681.41;5092628;28;20062;-79
2021/07/25 05:40:44;;;;;;;14.88;10.23;;;;;;;30.31;40.86;97676.28;5092844;28;20472;-78
2021/07/25 05:43:10;;;;;;;19.75;12.80;;;;;;;30.98;40.18;97681.38;5075892;28;20032;-79
2021/07/25 05:45:36;;;;;;;22.33;12.50;;;;;;;31.43;39.22;97691.34;5092647;28;20027;-79
2021/07/25 05:48:02;;;;;;;19.88;11.65;;;;;;;31.83;37.92;97674.47;5092809;28;20028;-79
2021/07/25 05:50:27;;;;;;;16.92;11.07;;;;;;;31.85;37.91;97692.53;5093803;28;20023;-79
2021/07/25 05:52:55;;;;;;;25.23;11.02;;;;;;;32.45;37.01;97692.84;5092575;28;20089;-79
2021/07/25 05:55:30;;;;;;;18.35;10.93;;;;;;;32.50;36.60;97681.91;5092328;28;20032;-78
2021/07/25 05:57:56;;;;;;;14.30;10.02;;;;;;;32.58;36.83;97693.56;5092617;28;20065;-79
2021/07/25 06:00:22;;;;;;;11.82;9.65;;;;;;;32.80;36.59;97698.63;5091587;28;20032;-79
2021/07/25 06:02:54;;;;;;;22.80;10.60;;;;;;;33.23;35.43;97702.16;5092228;28;20031;-79
2021/07/25 06:05:20;;;;;;;21.50;9.05;;;;;;;34.48;34.01;97694.59;5093220;28;20028;-79
2021/07/25 06:07:46;;;;;;;11.50;8.80;;;;;;;34.11;33.78;97691.22;5092296;28;20023;-79
2021/07/25 06:10:12;;;;;;;12.93;9.10;;;;;;;34.40;33.37;97698.56;5092324;28;20405;-79
2021/07/25 06:12:38;;;;;;;33.30;10.70;;;;;;;33.57;34.81;97695.88;5092036;28;20023;-79
2021/07/25 06:15:04;;;;;;;14.93;7.90;;;;;;;34.87;32.61;97685.50;5124173;27;20051;-79
2021/07/25 06:17:30;;;;;;;15.95;8.75;;;;;;;35.49;31.86;97683.72;5132803;27;20551;-79
2021/07/25 06:19:55;;;;;;;11.35;7.40;;;;;;;35.08;32.00;97681.19;5132883;27;20031;-79
2021/07/25 06:22:21;;;;;;;12.30;7.53;;;;;;;34.48;32.63;97683.47;5134129;27;20034;-79
2021/07/25 06:24:46;;;;;;;11.93;7.45;;;;;;;34.04;32.83;97693.22;5134179;27;20015;-78
2021/07/25 06:27:12;;;;;;;11.05;7.68;;;;;;;34.85;32.21;97687.69;5132741;27;20114;-79
2021/07/25 06:29:37;;;;;;;17.50;8.13;;;;;;;33.13;34.33;97686.06;5132203;27;20034;-78
2021/07/25 06:32:03;;;;;;;10.98;6.88;;;;;;;33.53;33.16;97685.50;5133906;27;20027;-78
2021/07/25 06:34:29;;;;;;;10.77;7.10;;;;;;;33.99;32.89;97687.56;5133667;27;20027;-78
2021/07/25 06:36:55;;;;;;;12.30;6.93;;;;;;;34.26;31.80;97672.13;5132351;27;20027;-78
2021/07/25 06:39:21;;;;;;;11.48;6.90;;;;;;;33.34;33.28;97675.56;5132245;27;20031;-78
2021/07/25 06:41:46;;;;;;;11.52;6.75;;;;;;;33.17;33.83;97678.13;5133172;27;20015;-80
2021/07/25 06:44:12;;;;;;;16.75;7.88;;;;;;;33.49;34.03;97685.13;5132039;27;20114;-78
2021/07/25 06:46:37;;;;;;;11.77;7.25;;;;;;;34.27;32.74;97663.53;5133064;27;20150;-78
2021/07/25 06:49:03;;;;;;;8.27;6.15;;;;;;;35.44;30.36;97663.28;5132012;27;20110;-78
2021/07/25 06:51:28;;;;;;;12.88;6.55;;;;;;;35.90;30.13;97674.19;5131900;27;20034;-77
2021/07/25 06:53:54;;;;;;;12.80;6.60;;;;;;;36.32;29.17;97663.44;5133121;27;20080;-78
2021/07/25 06:56:19;;;;;;;18.63;7.15;;;;;;;36.57;28.40;97666.63;5131979;27;20529;-78
2021/07/25 06:58:45;;;;;;;8.45;6.13;;;;;;;36.05;29.00;97662.47;5132985;27;20462;-78
2021/07/25 07:01:11;;;;;;;13.52;6.45;;;;;;;36.50;28.27;97663.16;5133798;27;20069;-78
2021/07/25 07:03:38;;;;;;;14.15;6.53;;;;;;;36.35;28.41;97660.13;5133193;27;20033;-78
2021/07/25 07:06:07;;;;;;;15.32;8.07;;;;;;;36.75;28.14;97668.25;5132110;27;20027;-78
2021/07/25 07:08:33;;;;;;;15.23;8.20;;;;;;;36.56;29.07;97655.72;5131767;27;20057;-78
2021/07/25 07:10:59;;;;;;;15.25;7.47;;;;;;;36.38;29.07;97670.78;5132675;27;20054;-78
2021/07/25 07:13:24;;;;;;;13.50;7.18;;;;;;;37.28;28.69;97673.13;5131046;27;20026;-78
2021/07/25 07:15:50;;;;;;;14.35;6.90;;;;;;;37.56;27.83;97670.13;5132779;27;20118;-78
2021/07/25 07:18:17;;;;;;;9.07;6.28;;;;;;;36.29;28.64;97655.59;5132638;27;20139;-78
2021/07/25 07:20:42;;;;;;;11.90;6.85;;;;;;;37.07;28.27;97669.25;5114213;27;20027;-78
2021/07/25 07:23:13;;;;;;;8.00;5.88;;;;;;;37.93;26.53;97662.66;5131478;27;20375;-76
2021/07/25 07:25:42;;;;;;;15.55;6.50;;;;;;;38.42;26.46;97668.91;5132510;27;20041;-76
2021/07/25 07:28:09;;;;;;;10.98;6.15;;;;;;;37.70;26.57;97668.56;5131496;27;20079;-78
2021/07/25 07:30:35;;;;;;;15.73;6.00;;;;;;;36.85;27.26;97671.19;5131286;27;20015;-76
2021/07/25 07:33:17;;;;;;;9.82;5.72;;;;;;;37.91;25.88;97670.47;5114552;27;20023;-76
2021/07/25 07:35:43;;;;;;;8.35;5.65;;;;;;;37.43;26.73;97657.41;5131434;27;20019;-78
2021/07/25 07:38:09;;;;;;;8.38;5.60;;;;;;;37.95;25.59;97660.47;5132602;27;20530;-78
2021/07/25 07:40:36;;;;;;;10.20;5.32;;;;;;;37.97;25.39;97663.81;5131295;27;20494;-78
2021/07/25 07:43:02;;;;;;;9.27;4.80;;;;;;;39.13;24.62;97660.09;5131174;27;20030;-78
2021/07/25 07:45:30;;;;;;;6.90;5.13;;;;;;;39.96;23.00;97644.91;5132463;27;20106;-78
2021/07/25 07:47:55;;;;;;;6.82;5.28;;;;;;;39.14;23.68;97639.38;5131090;27;20030;-78
2021/07/25 07:50:21;;;;;;;9.15;5.20;;;;;;;39.57;23.02;97661.34;5131297;27;20027;-77
2021/07/25 07:52:47;;;;;;;8.43;5.55;;;;;;;40.14;22.66;97654.72;5132204;27;20414;-77
2021/07/25 07:55:13;;;;;;;14.82;5.53;;;;;;;40.37;22.43;97659.72;5131249;27;20023;-77
2021/07/25 07:57:38;;;;;;;9.25;5.20;;;;;;;38.16;23.66;97652.22;5132393;27;20399;-77
2021/07/25 08:00:05;;;;;;;9.98;4.70;;;;;;;38.27;24.00;97654.00;5113824;28;20031;-77
2021/07/25 08:02:30;;;;;;;8.10;5.25;;;;;;;39.06;23.05;97645.50;5114043;28;20123;-76
2021/07/25 08:04:57;;;;;;;8.50;4.72;;;;;;;40.32;21.56;97645.72;5130862;28;20056;-77
2021/07/25 08:07:23;;;;;;;10.40;5.38;;;;;;;41.46;21.06;97656.03;5113982;28;20011;-77
2021/07/25 08:09:49;;;;;;;7.32;5.22;;;;;;;40.71;21.73;97646.78;5131961;27;20034;-77
2021/07/25 08:12:15;;;;;;;5.95;5.05;;;;;;;39.79;22.88;97647.97;5131006;28;20023;-76
2021/07/25 08:14:40;;;;;;;12.60;5.47;;;;;;;40.23;23.18;97655.84;5113366;28;20510;-77
2021/07/25 08:17:06;;;;;;;8.15;5.78;;;;;;;40.75;22.42;97656.31;5130795;28;20049;-77
2021/07/25 08:19:31;;;;;;;9.73;5.55;;;;;;;40.70;22.26;97661.09;5130911;28;20410;-77
2021/07/25 08:21:57;;;;;;;11.23;5.65;;;;;;;40.53;22.77;97659.47;5113391;28;20038;-77
2021/07/25 08:24:23;;;;;;;9.57;5.10;;;;;;;40.79;22.97;97660.25;5132303;27;20098;-76
2021/07/25 08:26:48;;;;;;;52.10;6.75;;;;;;;39.59;24.18;97664.72;5135837;27;20047;-77
2021/07/25 08:29:14;;;;;;;9.25;5.20;;;;;;;39.55;23.77;97664.44;5134734;27;20021;-76
2021/07/25 08:31:39;;;;;;;24.77;6.13;;;;;;;39.77;23.56;97643.75;5117710;27;20398;-76
2021/07/25 08:34:05;;;;;;;9.15;5.68;;;;;;;41.31;22.55;97662.56;5134421;27;20055;-77
2021/07/25 08:36:30;;;;;;;14.77;5.90;;;;;;;41.50;21.80;97646.72;5134468;27;20031;-77
2021/07/25 08:38:56;;;;;;;9.80;5.70;;;;;;;41.63;21.29;97634.00;5134413;27;20031;-77
2021/07/25 08:41:46;;;;;;;7.75;5.18;;;;;;;40.43;21.81;97641.75;5134766;27;20060;-77
2021/07/25 08:44:36;;;;;;;11.57;5.57;;;;;;;41.69;20.97;97643.25;5136188;27;20023;-77
2021/07/25 08:47:02;;;;;;;8.07;5.35;;;;;;;41.78;21.53;97631.09;5135512;27;20429;-77
2021/07/25 08:49:49;;;;;;;14.77;6.25;;;;;;;42.54;20.97;97639.72;5117314;27;20023;-77
2021/07/25 08:52:21;;;;;;;9.25;6.07;;;;;;;43.37;19.21;97630.88;5134391;27;20027;-77
2021/07/25 08:54:46;;;;;;;7.78;5.20;;;;;;;42.25;19.38;97613.56;5134144;27;20031;-77
2021/07/25 08:57:17;;;;;;;7.38;4.93;;;;;;;42.29;20.04;97611.84;5134146;27;20401;-77
2021/07/25 08:59:44;;;;;;;6.35;5.25;;;;;;;40.89;21.61;97612.44;5134301;27;20049;-77
2021/07/25 09:02:30;;;;;;;7.05;5.30;;;;;;;41.55;20.39;97614.94;5135283;27;20038;-77
2021/07/25 09:04:57;;;;;;;8.85;4.78;;;;;;;42.04;20.14;97612.88;5133892;27;20382;-77
2021/07/25 09:07:25;;;;;;;4.88;4.38;;;;;;;42.54;19.68;97610.72;5134378;27;20027;-77
2021/07/25 09:09:54;;;;;;;9.63;4.95;;;;;;;42.18;19.38;97618.69;5134116;27;20050;-78
2021/07/25 09:12:20;;;;;;;8.73;4.60;;;;;;;42.57;19.17;97604.50;5134145;27;20071;-78
2021/07/25 09:14:51;;;;;;;10.90;5.13;;;;;;;43.58;18.94;97612.50;5116748;27;20039;-78
2021/07/25 09:17:18;;;;;;;9.88;4.90;;;;;;;43.93;18.65;97608.31;5133592;27;20023;-78
2021/07/25 09:20:11;;;;;;;7.97;4.97;;;;;;;43.70;18.21;97600.75;5134079;27;20023;-77
2021/07/25 09:22:40;;;;;;;8.77;4.93;;;;;;;43.54;18.17;97597.31;5135497;27;20447;-76
2021/07/25 09:25:06;;;;;;;6.22;4.78;;;;;;;43.11;18.47;97602.16;5134982;27;20023;-76
2021/07/25 09:27:31;;;;;;;5.70;5.10;;;;;;;43.27;18.63;97588.69;5135014;27;20054;-77
2021/07/25 09:29:57;;;;;;;9.80;4.97;;;;;;;43.40;18.48;97601.22;5134821;27;20505;-76
2021/07/25 09:32:22;;;;;;;4.60;3.85;;;;;;;43.10;17.04;97577.94;5134809;27;20069;-77
2021/07/25 09:34:49;;;;;;;5.95;4.57;;;;;;;43.53;17.47;97575.09;5133721;27;20027;-77
2021/07/25 09:37:17;;;;;;;4.88;4.38;;;;;;;42.69;17.63;97571.16;5133223;27;20417;-77
2021/07/25 09:39:52;;;;;;;7.30;4.57;;;;;;;42.88;18.36;97572.03;5133502;27;20019;-77
2021/07/25 09:42:32;;;;;;;9.13;6.80;;;;;;;41.44;18.88;97562.78;5134621;27;20475;-77
2021/07/25 09:44:59;;;;;;;7.85;4.40;;;;;;;42.38;18.28;97567.00;5133576;27;20109;-77
2021/07/25 09:47:35;;;;;;;9.80;5.65;;;;;;;42.55;17.75;97572.97;5133201;27;20027;-77
2021/07/25 09:50:03;;;;;;;6.28;4.85;;;;;;;42.23;17.86;97569.97;5133165;27;20031;-77
2021/07/25 09:52:34;;;;;;;6.45;4.85;;;;;;;42.77;17.83;97564.84;5133077;27;20403;-77
2021/07/25 09:55:01;;;;;;;4.70;4.10;;;;;;;42.94;17.64;97548.31;5133064;27;20475;-77
2021/07/25 09:57:28;;;;;;;4.95;4.20;;;;;;;42.60;17.94;97564.53;5133009;27;20559;-77
2021/07/25 09:59:54;;;;;;;5.20;4.03;;;;;;;42.79;17.55;97562.59;5132790;27;20031;-77
2021/07/25 10:02:32;;;;;;;9.98;4.70;;;;;;;42.44;18.20;97555.38;5132953;27;20025;-77
2021/07/25 10:05:11;;;;;;;7.75;5.38;;;;;;;43.09;18.01;97562.19;5132941;27;20498;-77
2021/07/25 10:07:37;;;;;;;6.82;4.65;;;;;;;43.91;17.38;97571.09;5132916;27;20102;-77
2021/07/25 10:10:05;;;;;;;6.50;5.03;;;;;;;43.69;16.90;97548.31;5132565;27;20585;-77
2021/07/25 10:12:35;;;;;;;5.25;4.70;;;;;;;43.35;17.94;97550.56;5133002;27;20105;-77
2021/07/25 10:15:12;;;;;;;13.05;6.45;;;;;;;43.99;17.30;97559.09;5132636;27;20466;-76
2021/07/25 10:17:39;;;;;;;9.93;5.07;;;;;;;44.09;17.12;97556.06;5115227;27;20114;-76
2021/07/25 10:20:16;;;;;;;11.20;4.90;;;;;;;44.37;17.13;97553.31;5132732;27;20117;-77
2021/07/25 10:22:44;;;;;;;5.57;4.70;;;;;;;44.00;17.13;97549.47;5116047;27;20026;-77
2021/07/25 10:25:09;;;;;;;10.30;4.45;;;;;;;44.53;17.00;97547.06;5132711;27;20511;-78
2021/07/25 10:27:36;;;;;;;5.57;4.40;;;;;;;44.89;17.09;97537.84;5133426;27;20036;-77
2021/07/25 10:30:09;;;;;;;8.13;4.50;;;;;;;45.43;16.33;97556.72;5132516;27;20406;-78
2021/07/25 10:32:37;;;;;;;7.43;4.60;;;;;;;45.24;15.89;97545.56;5132504;27;20525;-77
2021/07/25 10:35:04;;;;;;;4.43;4.03;;;;;;;44.16;16.50;97535.94;5132379;27;20379;-77
2021/07/25 10:37:32;;;;;;;4.63;4.10;;;;;;;43.66;16.80;97540.47;5132211;27;20023;-77
2021/07/25 10:39:59;;;;;;;6.28;3.92;;;;;;;43.94;16.39;97539.44;5132369;27;20027;-77
2021/07/25 10:42:27;;;;;;;5.30;4.68;;;;;;;43.40;16.78;97540.06;5132134;27;20022;-77
2021/07/25 10:44:53;;;;;;;5.57;4.53;;;;;;;42.85;17.38;97526.75;5132316;27;20029;-77
2021/07/25 10:47:28;;;;;;;6.05;4.15;;;;;;;42.17;17.56;97521.38;5131550;27;20039;-77
2021/07/25 10:49:57;;;;;;;6.05;4.60;;;;;;;43.98;17.00;97534.84;5133404;27;20027;-77
2021/07/25 10:52:23;;;;;;;7.40;4.20;;;;;;;44.09;17.55;97527.03;5132946;27;20023;-77
2021/07/25 10:54:48;;;;;;;10.60;4.53;;;;;;;44.06;17.75;97514.38;5133328;27;20535;-77
2021/07/25 10:57:15;;;;;;;20.13;5.65;;;;;;;44.40;17.62;97518.81;5131453;27;20397;-77
2021/07/25 10:59:50;;;;;;;14.45;4.88;;;;;;;43.86;17.25;97525.22;5131888;27;20027;-77
2021/07/25 11:02:21;;;;;;;7.25;4.05;;;;;;;43.90;17.63;97527.09;5133273;27;20050;-77
2021/07/25 11:04:50;;;;;;;7.25;4.28;;;;;;;45.25;17.00;97542.44;5133451;27;20018;-77
2021/07/25 11:07:21;;;;;;;5.68;4.18;;;;;;;44.89;17.24;97530.22;5133209;27;20500;-76
2021/07/25 11:10:05;;;;;;;26.77;5.00;;;;;;;44.80;17.04;97529.28;5131808;27;20030;-77
2021/07/25 11:12:51;;;;;;;14.27;4.90;;;;;;;45.36;17.13;97533.72;5132692;27;20485;-77
2021/07/25 11:15:32;;;;;;;8.10;4.68;;;;;;;45.53;17.49;97531.03;5132822;27;20583;-77
2021/07/25 11:18:12;;;;;;;5.10;4.30;;;;;;;45.63;17.24;97527.94;5131409;27;20066;-77
2021/07/25 11:20:40;;;;;;;11.75;4.85;;;;;;;44.32;18.47;97522.38;5131751;27;20034;-77
2021/07/25 11:23:11;;;;;;;4.93;3.83;;;;;;;41.73;20.16;97515.84;5132976;27;20062;-77